createdAt,value
2023-03-10T00:05:27.254Z,76
2023-03-10T00:20:27.235Z,77
2023-03-10T00:35:27.187Z,77
2023-03-10T00:50:27.201Z,77
2023-03-10T01:05:27.146Z,77
2023-03-10T01:20:27.154Z,77
2023-03-10T01:35:27.117Z,77
2023-03-10T01:50:27.107Z,77
2023-03-10T02:05:27.051Z,77
2023-03-10T02:20:27.072Z,77
2023-03-10T02:35:27.026Z,77
2023-03-10T02:50:27.027Z,77
2023-03-10T03:05:26.981Z,77
2023-03-10T03:20:26.998Z,77
2023-03-10T03:35:26.990Z,77
2023-03-10T03:50:26.943Z,77
2023-03-10T04:05:26.887Z,77
2023-03-10T04:20:26.912Z,77
2023-03-10T04:35:26.871Z,77
2023-03-10T04:50:26.877Z,77
2023-03-10T05:05:26.867Z,77
2023-03-10T05:20:26.834Z,77
2023-03-10T05:35:26.788Z,77
2023-03-10T05:50:26.804Z,77
2023-03-10T06:05:26.738Z,74
2023-03-10T06:20:26.753Z,70
2023-03-10T06:35:26.708Z,67
2023-03-10T06:50:26.716Z,64
2023-03-10T07:05:26.656Z,63
2023-03-10T07:20:26.667Z,61
2023-03-10T07:35:26.616Z,60
2023-03-10T07:50:26.639Z,60
2023-03-10T08:05:26.694Z,61
2023-03-10T08:20:26.634Z,60
2023-03-10T08:35:26.518Z,61
2023-03-10T08:50:26.605Z,63
2023-03-10T09:05:26.495Z,63
2023-03-10T09:20:28.975Z,64
2023-03-10T09:35:26.487Z,65
2023-03-10T09:50:26.447Z,65
2023-03-10T10:05:26.410Z,65
2023-03-10T10:20:26.434Z,64
2023-03-10T10:35:26.370Z,62
2023-03-10T10:50:26.356Z,59
2023-03-10T11:05:26.315Z,60
2023-03-10T11:20:26.356Z,60
2023-03-10T11:35:26.306Z,59
2023-03-10T11:50:26.425Z,58
2023-03-10T12:05:26.288Z,58
2023-03-10T12:20:26.232Z,55
2023-03-10T12:35:26.178Z,53
2023-03-10T12:50:26.173Z,52
2023-03-10T13:05:26.128Z,52
2023-03-10T13:20:26.143Z,52
2023-03-10T13:35:26.083Z,51
2023-03-10T13:50:26.084Z,51
2023-03-10T14:05:26.037Z,50
2023-03-10T14:20:26.040Z,48
2023-03-10T14:35:26.011Z,46
2023-03-10T14:50:26.002Z,46
2023-03-10T15:05:31.912Z,47
2023-03-10T15:20:25.956Z,48
2023-03-10T15:35:25.884Z,47
2023-03-10T15:50:25.922Z,47
2023-03-10T16:05:25.856Z,47
2023-03-10T16:20:25.854Z,47
2023-03-10T16:35:25.809Z,47
2023-03-10T16:50:25.809Z,46
2023-03-10T17:05:25.742Z,46
2023-03-10T17:20:25.755Z,46
2023-03-10T17:35:25.727Z,47
2023-03-10T17:50:25.708Z,47
2023-03-10T18:05:25.676Z,50
2023-03-10T18:20:25.695Z,53
2023-03-10T18:35:25.610Z,55
2023-03-10T18:50:25.641Z,57
2023-03-10T19:05:25.600Z,60
2023-03-10T19:20:25.623Z,64
2023-03-10T19:35:25.549Z,66
2023-03-10T19:50:25.582Z,67
2023-03-10T20:05:25.592Z,69
2023-03-10T20:20:25.550Z,71
2023-03-10T20:35:25.579Z,71
2023-03-10T20:50:25.485Z,72
2023-03-10T21:05:25.477Z,72
2023-03-10T21:20:25.496Z,73
2023-03-10T21:35:25.440Z,74
2023-03-10T21:50:25.472Z,75
2023-03-10T22:05:25.417Z,76
2023-03-10T22:20:25.435Z,76
2023-03-10T22:35:25.380Z,77
2023-03-10T22:50:25.413Z,77
2023-03-10T23:05:25.355Z,77
2023-03-10T23:20:25.365Z,77
2023-03-10T23:35:25.323Z,77
2023-03-10T23:50:25.344Z,78
